Seagraves, Texas
Current Conditions -  °F | °C
As of 1:15 PM on Monday 20 Oct 2014 (Local Time) from KGNC Reporting Station
Clear Clear  
Wind Chill: 73°   Ceiling: Unl
Heat Index: 73°   Visibility: 10mi
Dew Point: 57°   Wind: 6mph
Humidity: 58%   Direction: 150°SSE
Pressure: 30.13"   Gusts: NA
Location:  32.94°N, 102.56°W
Report Text: KGNC 201815Z AUTO 15005KT 10SM CLR 23/14 A3013 RMK AO2 T02260139
Loading
Personal Weather Stations






























Interactive Weather Map
Tropical Storm Tracking
New forecast layout! Learn more

10-Day Weather Forecast

Advertisements
Track Severe Weather on mobile